createdAt,value
2018-06-23T00:01:45.944Z,4.20
2018-06-23T00:04:19.774Z,3.35
2018-06-23T00:06:53.593Z,4.07
2018-06-23T00:09:28.068Z,3.30
2018-06-23T00:12:01.872Z,2.80
2018-06-23T00:14:35.589Z,2.92
2018-06-23T00:17:10.195Z,2.28
2018-06-23T00:19:44.824Z,2.58
2018-06-23T00:22:18.689Z,2.80
2018-06-23T00:24:53.225Z,2.65
2018-06-23T00:27:27.588Z,2.87
2018-06-23T00:30:01.345Z,3.47
2018-06-23T00:32:35.820Z,3.70
2018-06-23T00:35:09.691Z,3.05
2018-06-23T00:37:43.297Z,2.25
2018-06-23T00:40:17.132Z,2.75
2018-06-23T00:42:51.797Z,2.78
2018-06-23T00:45:26.997Z,2.80
2018-06-23T00:48:00.931Z,2.87
2018-06-23T00:50:34.928Z,3.12
2018-06-23T00:53:08.801Z,2.60
2018-06-23T00:55:42.459Z,2.83
2018-06-23T00:58:16.332Z,3.42
2018-06-23T01:00:50.993Z,3.08
2018-06-23T01:03:24.604Z,2.60
2018-06-23T01:05:58.456Z,2.83
2018-06-23T01:08:32.686Z,3.90
2018-06-23T01:11:06.441Z,4.15
2018-06-23T01:13:40.090Z,3.00
2018-06-23T01:16:14.687Z,3.37
2018-06-23T01:18:48.256Z,5.47
2018-06-23T01:21:22.052Z,2.80
2018-06-23T01:23:56.601Z,2.60
2018-06-23T01:26:30.397Z,2.47
2018-06-23T01:29:04.942Z,2.85
2018-06-23T01:31:38.846Z,2.42
2018-06-23T01:34:12.765Z,2.47
2018-06-23T01:36:46.495Z,2.78
2018-06-23T01:39:20.361Z,2.42
2018-06-23T01:41:54.220Z,2.50
2018-06-23T01:44:28.025Z,2.97
2018-06-23T01:47:01.837Z,3.15
2018-06-23T01:49:36.556Z,2.00
2018-06-23T01:52:11.157Z,2.45
2018-06-23T01:54:44.880Z,2.60
2018-06-23T01:57:18.693Z,2.22
2018-06-23T01:59:53.212Z,2.10
2018-06-23T02:02:27.012Z,2.58
2018-06-23T02:05:01.627Z,2.58
2018-06-23T02:07:36.220Z,2.72
2018-06-23T02:10:10.105Z,2.80
2018-06-23T02:12:44.668Z,2.70
2018-06-23T02:15:19.135Z,2.50
2018-06-23T02:20:58.194Z,2.78
2018-06-23T02:26:41.136Z,3.08
2018-06-23T02:32:20.476Z,2.80
2018-06-23T02:34:58.069Z,2.20
2018-06-23T02:37:31.813Z,2.55
2018-06-23T02:40:05.540Z,2.35
2018-06-23T02:42:40.057Z,2.40
2018-06-23T02:45:13.855Z,2.47
2018-06-23T02:47:48.484Z,2.60
2018-06-23T02:50:22.355Z,2.80
2018-06-23T02:52:56.140Z,2.35
2018-06-23T02:55:29.978Z,2.65
2018-06-23T02:58:03.825Z,2.58
2018-06-23T03:00:37.659Z,2.50
2018-06-23T03:03:11.468Z,2.67
2018-06-23T03:05:45.305Z,2.80
2018-06-23T03:08:19.045Z,3.03
2018-06-23T03:10:52.742Z,2.67
2018-06-23T03:13:26.568Z,2.47
2018-06-23T03:16:00.391Z,2.55
2018-06-23T03:18:34.097Z,2.90
2018-06-23T03:21:07.797Z,2.55
2018-06-23T03:23:42.600Z,3.15
2018-06-23T03:26:16.334Z,2.95
2018-06-23T03:28:50.213Z,3.00
2018-06-23T03:31:23.948Z,2.60
2018-06-23T03:33:58.490Z,2.78
2018-06-23T03:36:32.234Z,3.05
2018-06-23T03:39:06.888Z,2.40
2018-06-23T03:41:41.283Z,2.78
2018-06-23T03:44:14.912Z,2.53
2018-06-23T03:46:48.516Z,2.92
2018-06-23T03:49:22.326Z,2.85
2018-06-23T03:51:56.136Z,3.00
2018-06-23T03:54:29.815Z,2.95
2018-06-23T03:57:03.620Z,3.37
2018-06-23T03:59:38.272Z,2.90
2018-06-23T04:02:12.182Z,3.58
2018-06-23T04:04:45.780Z,2.72
2018-06-23T04:07:19.723Z,3.30
2018-06-23T04:09:54.282Z,3.15
2018-06-23T04:12:28.892Z,4.57
2018-06-23T04:15:02.612Z,4.10
2018-06-23T04:17:36.314Z,3.40
2018-06-23T04:20:10.272Z,3.40
2018-06-23T04:22:44.101Z,3.75
2018-06-23T04:25:17.948Z,4.00
2018-06-23T04:27:52.558Z,3.70
2018-06-23T04:30:26.584Z,3.20
2018-06-23T04:33:00.320Z,4.05
2018-06-23T04:35:34.905Z,4.15
2018-06-23T04:38:09.530Z,3.83
2018-06-23T04:40:44.052Z,4.25
2018-06-23T04:43:18.694Z,4.20
2018-06-23T04:45:52.430Z,3.65
2018-06-23T04:48:26.305Z,4.00
2018-06-23T04:51:00.096Z,4.60
2018-06-23T04:53:33.946Z,5.12
2018-06-23T04:56:08.630Z,4.62
2018-06-23T04:58:42.412Z,4.30
2018-06-23T05:01:16.778Z,4.00
2018-06-23T05:03:50.497Z,4.82
2018-06-23T05:06:25.115Z,4.45
2018-06-23T05:08:59.719Z,5.20
2018-06-23T05:11:33.563Z,4.00
2018-06-23T05:14:08.175Z,3.83
2018-06-23T05:16:42.796Z,3.70
2018-06-23T05:19:16.445Z,4.20
2018-06-23T05:21:50.071Z,4.15
2018-06-23T05:24:23.955Z,4.43
2018-06-23T05:26:57.690Z,4.32
2018-06-23T05:29:32.245Z,6.28
2018-06-23T05:32:06.784Z,4.35
2018-06-23T05:34:41.307Z,4.93
2018-06-23T05:37:15.061Z,5.05
2018-06-23T05:39:49.612Z,4.45
2018-06-23T05:42:24.101Z,4.95
2018-06-23T05:44:58.029Z,5.10
2018-06-23T05:47:31.678Z,5.70
2018-06-23T05:50:05.496Z,4.80
2018-06-23T05:52:39.966Z,5.07
2018-06-23T05:55:14.453Z,5.15
2018-06-23T05:57:48.223Z,4.45
2018-06-23T06:00:22.145Z,5.28
2018-06-23T06:02:56.708Z,5.07
2018-06-23T06:05:30.616Z,4.90
2018-06-23T06:08:05.131Z,4.87
2018-06-23T06:10:38.896Z,5.07
2018-06-23T06:13:13.464Z,5.47
2018-06-23T06:15:47.309Z,4.53
2018-06-23T06:18:22.012Z,4.75
2018-06-23T06:20:56.650Z,5.53
2018-06-23T06:23:30.353Z,5.10
2018-06-23T06:26:04.224Z,5.25
2018-06-23T06:28:38.776Z,5.32
2018-06-23T06:31:13.367Z,5.18
2018-06-23T06:33:47.205Z,5.10
2018-06-23T06:36:21.717Z,5.20
2018-06-23T06:38:55.577Z,5.15
2018-06-23T06:41:30.072Z,5.55
2018-06-23T06:44:03.905Z,5.07
2018-06-23T06:46:37.605Z,6.32
2018-06-23T06:49:11.510Z,5.28
2018-06-23T06:51:45.430Z,6.70
2018-06-23T06:54:19.326Z,5.72
2018-06-23T06:56:53.092Z,6.18
2018-06-23T06:59:26.949Z,6.22
2018-06-23T07:02:00.673Z,6.32
2018-06-23T07:04:35.256Z,6.00
2018-06-23T07:07:09.042Z,7.07
2018-06-23T07:09:42.893Z,5.78
2018-06-23T07:12:16.698Z,7.68
2018-06-23T07:14:50.437Z,8.15
2018-06-23T07:17:24.328Z,7.32
2018-06-23T07:19:58.079Z,6.60
2018-06-23T07:22:31.930Z,6.78
2018-06-23T07:25:05.772Z,7.57
2018-06-23T07:27:39.691Z,6.45
2018-06-23T07:30:13.503Z,7.60
2018-06-23T07:32:48.195Z,6.75
2018-06-23T07:35:21.965Z,6.87
2018-06-23T07:37:56.580Z,6.70
2018-06-23T07:40:30.164Z,6.50
2018-06-23T07:43:04.048Z,6.78
2018-06-23T07:45:37.749Z,6.68
2018-06-23T07:48:12.284Z,7.15
2018-06-23T07:50:46.072Z,6.37
2018-06-23T07:53:19.844Z,7.12
2018-06-23T07:55:53.644Z,6.62
2018-06-23T07:58:28.229Z,8.10
2018-06-23T08:01:02.076Z,6.90
2018-06-23T08:03:36.642Z,7.30
2018-06-23T08:06:11.201Z,9.00
2018-06-23T08:08:45.102Z,7.72
2018-06-23T08:11:18.944Z,10.68
2018-06-23T08:13:52.711Z,6.75
2018-06-23T08:16:27.366Z,7.55
2018-06-23T08:19:01.048Z,6.05
2018-06-23T08:21:34.930Z,6.28
2018-06-23T08:24:08.648Z,7.00
2018-06-23T08:26:42.752Z,6.20
2018-06-23T08:29:16.432Z,6.00
2018-06-23T08:31:50.045Z,7.15
2018-06-23T08:34:23.831Z,5.75
2018-06-23T08:36:57.698Z,6.03
2018-06-23T08:39:32.228Z,5.65
2018-06-23T08:42:06.002Z,5.80
2018-06-23T08:44:39.958Z,4.87
2018-06-23T08:47:13.769Z,4.45
2018-06-23T08:49:47.444Z,4.53
2018-06-23T08:52:21.122Z,4.75
2018-06-23T08:54:55.691Z,4.30
2018-06-23T08:57:29.361Z,4.30
2018-06-23T09:00:03.196Z,4.90
2018-06-23T09:02:36.944Z,4.28
2018-06-23T09:05:10.884Z,4.20
2018-06-23T09:07:44.547Z,5.03
2018-06-23T09:10:18.321Z,4.13
2018-06-23T09:12:52.821Z,5.70
2018-06-23T09:15:27.237Z,5.28
2018-06-23T09:18:01.120Z,4.87
2018-06-23T09:20:35.537Z,4.20
2018-06-23T09:23:09.336Z,3.75
2018-06-23T09:25:43.921Z,3.85
2018-06-23T09:28:18.301Z,4.50
2018-06-23T09:30:52.169Z,3.87
2018-06-23T09:33:26.621Z,4.40
2018-06-23T09:36:00.518Z,4.87
2018-06-23T09:38:35.246Z,4.37
2018-06-23T09:41:09.803Z,4.10
2018-06-23T09:43:43.488Z,4.25
2018-06-23T09:46:18.024Z,4.53
2018-06-23T09:48:52.682Z,5.22
2018-06-23T09:51:26.433Z,4.62
2018-06-23T09:54:01.018Z,4.12
2018-06-23T09:56:35.565Z,4.65
2018-06-23T09:59:09.246Z,4.93
2018-06-23T10:01:43.121Z,5.20
2018-06-23T10:04:17.596Z,4.40
2018-06-23T10:06:52.001Z,6.12
2018-06-23T10:09:25.887Z,5.28
2018-06-23T10:12:00.414Z,4.37
2018-06-23T10:14:34.198Z,4.65
2018-06-23T10:17:07.910Z,4.97
2018-06-23T10:19:41.635Z,4.87
2018-06-23T10:22:15.384Z,4.28
2018-06-23T10:24:49.060Z,4.57
2018-06-23T10:27:22.959Z,4.70
2018-06-23T10:29:56.757Z,4.53
2018-06-23T10:32:30.686Z,4.00
2018-06-23T10:35:04.637Z,11.85
2018-06-23T10:37:38.517Z,4.10
2018-06-23T10:40:12.339Z,5.65
2018-06-23T10:42:46.189Z,4.83
2018-06-23T10:45:19.861Z,4.10
2018-06-23T10:47:54.303Z,4.10
2018-06-23T10:50:28.201Z,4.78
2018-06-23T10:53:02.800Z,6.35
2018-06-23T10:55:36.705Z,4.80
2018-06-23T10:58:11.268Z,4.07
2018-06-23T11:00:45.046Z,4.77
2018-06-23T11:03:19.586Z,4.60
2018-06-23T11:05:53.469Z,5.15
2018-06-23T11:08:27.376Z,4.60
2018-06-23T11:11:02.241Z,4.90
2018-06-23T11:13:35.869Z,5.70
2018-06-23T11:16:09.478Z,4.70
2018-06-23T11:18:43.280Z,4.50
2018-06-23T11:21:17.161Z,4.90
2018-06-23T11:23:51.652Z,5.28
2018-06-23T11:26:26.309Z,5.32
2018-06-23T11:29:00.087Z,4.90
2018-06-23T11:31:33.916Z,4.82
2018-06-23T11:34:07.696Z,5.78
2018-06-23T11:36:41.484Z,5.03
2018-06-23T11:39:15.148Z,5.20
2018-06-23T11:41:49.018Z,4.97
2018-06-23T11:44:22.736Z,5.30
2018-06-23T11:46:56.396Z,5.50
2018-06-23T11:49:30.948Z,4.95
2018-06-23T11:52:04.826Z,5.50
2018-06-23T11:54:39.453Z,5.00
2018-06-23T11:57:13.412Z,4.55
2018-06-23T11:59:47.224Z,5.47
2018-06-23T12:02:20.989Z,5.40
2018-06-23T12:04:54.760Z,5.40
2018-06-23T12:07:29.479Z,5.10
2018-06-23T12:10:03.301Z,5.18
2018-06-23T12:12:37.247Z,6.32
2018-06-23T12:15:10.941Z,4.60
2018-06-23T12:17:44.825Z,5.37
2018-06-23T12:20:19.308Z,5.00
2018-06-23T12:22:53.818Z,5.18
2018-06-23T12:25:28.471Z,5.78
2018-06-23T12:28:02.921Z,8.85
2018-06-23T12:30:36.552Z,6.12
2018-06-23T12:33:10.284Z,5.62
2018-06-23T12:35:44.088Z,11.90
2018-06-23T12:38:17.767Z,6.62
2018-06-23T12:40:51.556Z,5.25
2018-06-23T12:43:25.991Z,5.85
2018-06-23T12:45:59.886Z,6.07
2018-06-23T12:48:33.928Z,5.55
2018-06-23T12:51:07.826Z,4.93
2018-06-23T12:53:41.554Z,5.20
2018-06-23T12:56:15.695Z,6.12
2018-06-23T12:58:49.377Z,4.60
2018-06-23T13:01:22.938Z,4.70
2018-06-23T13:03:57.612Z,5.18
2018-06-23T13:06:31.349Z,4.50
2018-06-23T13:09:06.026Z,5.65
2018-06-23T13:11:39.931Z,6.15
2018-06-23T13:14:13.690Z,5.12
2018-06-23T13:16:47.356Z,4.82
2018-06-23T13:19:21.296Z,5.55
2018-06-23T13:21:55.155Z,10.75
2018-06-23T13:24:29.704Z,5.60
2018-06-23T13:27:04.305Z,5.95
2018-06-23T13:29:38.056Z,4.30
2018-06-23T13:32:12.408Z,5.10
2018-06-23T13:34:46.920Z,4.90
2018-06-23T13:37:20.589Z,5.00
2018-06-23T13:39:54.984Z,4.50
2018-06-23T13:42:28.873Z,4.90
2018-06-23T13:45:02.614Z,4.50
2018-06-23T13:47:36.353Z,4.62
2018-06-23T13:50:10.204Z,3.72
2018-06-23T13:52:44.794Z,4.05
2018-06-23T13:55:18.625Z,4.37
2018-06-23T13:57:52.333Z,3.92
2018-06-23T14:00:26.829Z,5.57
2018-06-23T14:03:00.629Z,3.70
2018-06-23T14:05:35.271Z,3.53
2018-06-23T14:08:09.144Z,3.97
2018-06-23T14:10:44.467Z,4.35
2018-06-23T14:13:18.928Z,3.47
2018-06-23T14:15:52.777Z,3.60
2018-06-23T14:18:27.253Z,3.80
2018-06-23T14:21:01.136Z,4.00
2018-06-23T14:23:35.819Z,2.90
2018-06-23T14:26:09.639Z,3.33
2018-06-23T14:28:43.492Z,3.22
2018-06-23T14:31:17.229Z,2.80
2018-06-23T14:33:50.853Z,3.33
2018-06-23T14:36:24.405Z,2.90
2018-06-23T14:38:58.164Z,3.30
2018-06-23T14:41:31.993Z,2.75
2018-06-23T14:44:05.837Z,3.20
2018-06-23T14:46:40.378Z,4.10
2018-06-23T14:49:14.276Z,4.28
2018-06-23T14:51:48.802Z,4.47
2018-06-23T14:54:22.677Z,3.47
2018-06-23T14:56:56.446Z,3.53
2018-06-23T14:59:30.958Z,3.53
2018-06-23T15:02:04.694Z,3.50
2018-06-23T15:04:39.293Z,3.70
2018-06-23T15:07:13.110Z,3.10
2018-06-23T15:12:57.464Z,4.00
2018-06-23T15:15:31.237Z,4.25
2018-06-23T15:18:05.327Z,4.20
2018-06-23T15:20:39.174Z,3.60
2018-06-23T15:23:13.670Z,3.20
2018-06-23T15:25:47.416Z,2.70
2018-06-23T15:28:21.404Z,3.00
2018-06-23T15:30:55.261Z,3.45
2018-06-23T15:33:29.118Z,3.30
2018-06-23T15:36:03.675Z,3.70
2018-06-23T15:38:37.405Z,4.60
2018-06-23T15:41:11.264Z,3.53
2018-06-23T15:43:45.767Z,3.10
2018-06-23T15:46:20.403Z,3.33
2018-06-23T15:48:54.283Z,3.28
2018-06-23T15:51:28.052Z,3.80
2018-06-23T15:54:02.810Z,3.00
2018-06-23T15:56:38.129Z,4.00
2018-06-23T15:59:11.805Z,2.90
2018-06-23T16:01:45.664Z,3.67
2018-06-23T16:04:19.491Z,3.10
2018-06-23T16:06:53.461Z,3.60
2018-06-23T16:09:27.140Z,4.00
2018-06-23T16:12:00.859Z,4.07
2018-06-23T16:14:35.374Z,3.65
2018-06-23T16:17:10.006Z,3.10
2018-06-23T16:19:44.615Z,3.42
2018-06-23T16:22:19.190Z,3.47
2018-06-23T16:24:52.915Z,4.10
2018-06-23T16:27:26.514Z,4.95
2018-06-23T16:30:00.278Z,3.95
2018-06-23T16:32:34.775Z,3.70
2018-06-23T16:35:09.512Z,4.35
2018-06-23T16:37:43.172Z,4.12
2018-06-23T16:40:17.869Z,3.62
2018-06-23T16:42:51.556Z,4.10
2018-06-23T16:45:26.136Z,5.18
2018-06-23T16:48:00.006Z,4.10
2018-06-23T16:50:33.762Z,4.55
2018-06-23T16:53:07.384Z,4.78
2018-06-23T16:55:41.791Z,4.15
2018-06-23T16:58:15.591Z,3.17
2018-06-23T17:00:49.217Z,4.28
2018-06-23T17:03:23.011Z,4.45
2018-06-23T17:05:57.504Z,4.25
2018-06-23T17:08:31.277Z,3.92
2018-06-23T17:11:05.060Z,4.68
2018-06-23T17:13:38.845Z,3.75
2018-06-23T17:16:13.465Z,4.00
2018-06-23T17:18:47.278Z,3.70
2018-06-23T17:21:21.792Z,4.10
2018-06-23T17:23:55.399Z,3.78
2018-06-23T17:26:29.177Z,3.95
2018-06-23T17:29:03.018Z,3.87
2018-06-23T17:31:36.633Z,3.78
2018-06-23T17:34:10.345Z,3.65
2018-06-23T17:36:44.890Z,3.25
2018-06-23T17:39:18.690Z,3.87
2018-06-23T17:41:52.417Z,5.75
2018-06-23T17:44:26.092Z,2.50
2018-06-23T17:46:59.796Z,2.67
2018-06-23T17:49:34.353Z,2.97
2018-06-23T17:52:07.992Z,2.50
2018-06-23T17:54:42.503Z,2.50
2018-06-23T17:57:16.340Z,2.70
2018-06-23T17:59:50.827Z,2.75
2018-06-23T18:02:24.525Z,2.80
2018-06-23T18:04:58.336Z,2.60
2018-06-23T18:07:32.164Z,2.97
2018-06-23T18:10:05.900Z,2.30
2018-06-23T18:12:39.536Z,2.55
2018-06-23T18:15:14.093Z,2.05
2018-06-23T18:17:48.523Z,2.15
2018-06-23T18:20:23.100Z,2.30
2018-06-23T18:22:56.864Z,2.42
2018-06-23T18:25:31.527Z,2.20
2018-06-23T18:28:05.386Z,2.40
2018-06-23T18:30:39.065Z,2.35
2018-06-23T18:33:13.516Z,2.60
2018-06-23T18:35:48.687Z,2.47
2018-06-23T18:38:22.409Z,2.55
2018-06-23T18:40:57.077Z,2.87
2018-06-23T18:43:31.533Z,2.65
2018-06-23T18:46:05.313Z,3.25
2018-06-23T18:48:39.024Z,3.05
2018-06-23T18:51:12.866Z,3.10
2018-06-23T18:53:46.507Z,2.50
2018-06-23T18:56:20.299Z,5.50
2018-06-23T18:58:53.913Z,2.62
2018-06-23T19:01:27.726Z,2.70
2018-06-23T19:04:01.513Z,2.65
2018-06-23T19:06:35.457Z,2.62
2018-06-23T19:09:10.097Z,3.15
2018-06-23T19:11:44.662Z,5.12
2018-06-23T19:14:18.353Z,3.17
2018-06-23T19:16:52.171Z,3.50
2018-06-23T19:19:27.534Z,2.62
2018-06-23T19:22:01.259Z,2.45
2018-06-23T19:24:35.118Z,3.00
2018-06-23T19:27:08.905Z,3.00
2018-06-23T19:29:42.661Z,3.72
2018-06-23T19:32:17.849Z,2.95
2018-06-23T19:34:51.710Z,3.05
2018-06-23T19:37:25.541Z,3.05
2018-06-23T19:39:59.191Z,2.95
2018-06-23T19:42:33.045Z,3.65
2018-06-23T19:45:08.419Z,3.10
2018-06-23T19:47:42.163Z,3.30
2018-06-23T19:50:16.045Z,3.97
2018-06-23T19:52:49.844Z,3.60
2018-06-23T19:55:24.468Z,3.85
2018-06-23T19:57:58.195Z,3.33
2018-06-23T20:00:31.876Z,3.50
2018-06-23T20:03:05.676Z,4.30
2018-06-23T20:05:39.392Z,4.65
2018-06-23T20:08:13.050Z,5.75
2018-06-23T20:10:47.648Z,3.85
2018-06-23T20:13:21.456Z,4.10
2018-06-23T20:15:56.031Z,4.57
2018-06-23T20:18:29.772Z,4.87
2018-06-23T20:21:04.374Z,4.25
2018-06-23T20:23:38.021Z,4.60
2018-06-23T20:26:11.745Z,4.68
2018-06-23T20:28:45.512Z,4.90
2018-06-23T20:31:19.332Z,4.40
2018-06-23T20:33:53.105Z,6.07
2018-06-23T20:36:26.810Z,4.85
2018-06-23T20:39:01.328Z,4.60
2018-06-23T20:41:35.301Z,5.07
2018-06-23T20:44:09.168Z,4.93
2018-06-23T20:46:43.035Z,5.43
2018-06-23T20:49:16.830Z,4.95
2018-06-23T20:51:50.595Z,5.05
2018-06-23T20:54:24.505Z,4.80
2018-06-23T20:56:58.274Z,5.90
2018-06-23T20:59:32.115Z,5.30
2018-06-23T21:02:05.914Z,5.47
2018-06-23T21:04:39.857Z,5.57
2018-06-23T21:07:13.755Z,5.10
2018-06-23T21:09:47.601Z,5.28
2018-06-23T21:12:22.952Z,5.80
2018-06-23T21:14:56.808Z,5.35
2018-06-23T21:17:30.594Z,5.50
2018-06-23T21:20:04.373Z,5.60
2018-06-23T21:22:39.028Z,5.40
2018-06-23T21:25:12.662Z,5.30
2018-06-23T21:27:46.548Z,5.57
2018-06-23T21:30:20.343Z,4.70
2018-06-23T21:32:54.184Z,5.57
2018-06-23T21:35:28.760Z,5.05
2018-06-23T21:38:03.262Z,4.90
2018-06-23T21:40:36.988Z,4.95
2018-06-23T21:43:10.843Z,4.80
2018-06-23T21:45:44.465Z,5.18
2018-06-23T21:48:18.088Z,5.03
2018-06-23T21:50:51.812Z,4.70
2018-06-23T21:53:25.393Z,6.18
2018-06-23T21:55:59.221Z,6.22
2018-06-23T21:58:33.722Z,5.25
2018-06-23T22:01:08.241Z,5.80
2018-06-23T22:03:41.904Z,4.62
2018-06-23T22:06:16.501Z,5.50
2018-06-23T22:08:50.168Z,5.05
2018-06-23T22:11:24.707Z,5.53
2018-06-23T22:13:58.340Z,5.12
2018-06-23T22:16:32.913Z,6.43
2018-06-23T22:19:07.348Z,5.12
2018-06-23T22:21:41.185Z,5.65
2018-06-23T22:24:14.968Z,5.60
2018-06-23T22:26:48.782Z,6.65
2018-06-23T22:29:23.191Z,5.07
2018-06-23T22:31:56.995Z,5.30
2018-06-23T22:34:31.399Z,5.15
2018-06-23T22:37:05.118Z,4.20
2018-06-23T22:39:39.650Z,5.07
2018-06-23T22:42:13.444Z,5.20
2018-06-23T22:44:47.304Z,4.78
2018-06-23T22:47:21.081Z,6.45
2018-06-23T22:49:54.889Z,5.47
2018-06-23T22:52:28.689Z,5.50
2018-06-23T22:55:03.160Z,4.80
2018-06-23T22:57:37.765Z,5.00
2018-06-23T23:00:12.266Z,5.87
2018-06-23T23:02:46.129Z,4.97
2018-06-23T23:05:20.005Z,4.72
2018-06-23T23:07:53.774Z,5.35
2018-06-23T23:10:27.457Z,5.47
2018-06-23T23:13:01.259Z,5.25
2018-06-23T23:15:34.948Z,5.22
2018-06-23T23:18:09.688Z,4.70
2018-06-23T23:20:43.472Z,5.40
2018-06-23T23:23:17.232Z,5.60
2018-06-23T23:25:51.060Z,4.80
2018-06-23T23:28:24.991Z,5.55
2018-06-23T23:30:59.543Z,5.15
2018-06-23T23:33:33.375Z,6.15
2018-06-23T23:36:07.199Z,4.75
2018-06-23T23:38:41.120Z,6.28
2018-06-23T23:41:14.873Z,4.97
2018-06-23T23:43:48.772Z,5.12
2018-06-23T23:46:22.609Z,5.12
2018-06-23T23:48:56.437Z,5.37
2018-06-23T23:51:30.210Z,5.68
2018-06-23T23:54:04.065Z,5.80
2018-06-23T23:56:37.842Z,5.40
2018-06-23T23:59:12.592Z,5.45
